sensor_id;sensor_type;location;lat;lon;timestamp;P1;durP1;ratioP1;P2;durP2;ratioP2
57107;SDS011;42987;52.916;6.542;2023-04-01T00:00:57;13.75;;;12.02;;
57107;SDS011;42987;52.916;6.542;2023-04-01T00:03:24;13.25;;;11.85;;
57107;SDS011;42987;52.916;6.542;2023-04-01T00:05:52;13.68;;;12.00;;
57107;SDS011;42987;52.916;6.542;2023-04-01T00:08:18;14.15;;;12.02;;
57107;SDS011;42987;52.916;6.542;2023-04-01T00:10:44;14.02;;;12.48;;
57107;SDS011;42987;52.916;6.542;2023-04-01T00:13:10;14.70;;;12.15;;
57107;SDS011;42987;52.916;6.542;2023-04-01T00:15:36;13.65;;;12.25;;
57107;SDS011;42987;52.916;6.542;2023-04-01T00:18:02;13.23;;;11.88;;
57107;SDS011;42987;52.916;6.542;2023-04-01T00:20:28;12.57;;;11.27;;
57107;SDS011;42987;52.916;6.542;2023-04-01T00:22:55;12.80;;;11.48;;
57107;SDS011;42987;52.916;6.542;2023-04-01T00:25:21;16.63;;;12.52;;
57107;SDS011;42987;52.916;6.542;2023-04-01T00:27:47;14.30;;;12.15;;
57107;SDS011;42987;52.916;6.542;2023-04-01T00:30:14;13.70;;;11.88;;
57107;SDS011;42987;52.916;6.542;2023-04-01T00:32:40;13.13;;;11.60;;
57107;SDS011;42987;52.916;6.542;2023-04-01T00:35:06;12.55;;;10.88;;
57107;SDS011;42987;52.916;6.542;2023-04-01T00:37:34;13.10;;;11.32;;
57107;SDS011;42987;52.916;6.542;2023-04-01T00:40:02;12.00;;;10.80;;
57107;SDS011;42987;52.916;6.542;2023-04-01T00:42:30;11.65;;;10.45;;
57107;SDS011;42987;52.916;6.542;2023-04-01T00:44:56;13.48;;;11.55;;
57107;SDS011;42987;52.916;6.542;2023-04-01T00:47:24;12.35;;;10.18;;
57107;SDS011;42987;52.916;6.542;2023-04-01T00:49:52;11.35;;;9.60;;
57107;SDS011;42987;52.916;6.542;2023-04-01T00:52:21;12.23;;;10.10;;
57107;SDS011;42987;52.916;6.542;2023-04-01T00:54:50;11.63;;;9.38;;
57107;SDS011;42987;52.916;6.542;2023-04-01T00:57:25;12.15;;;10.30;;
57107;SDS011;42987;52.916;6.542;2023-04-01T01:00:02;12.82;;;9.43;;
57107;SDS011;42987;52.916;6.542;2023-04-01T01:02:32;10.90;;;8.40;;
57107;SDS011;42987;52.916;6.542;2023-04-01T01:04:59;10.82;;;9.27;;
57107;SDS011;42987;52.916;6.542;2023-04-01T01:15:22;8.90;;;7.72;;
57107;SDS011;42987;52.916;6.542;2023-04-01T01:37:28;3.25;;;2.05;;
57107;SDS011;42987;52.916;6.542;2023-04-01T01:40:03;4.28;;;2.15;;
57107;SDS011;42987;52.916;6.542;2023-04-01T01:42:32;4.43;;;1.92;;
57107;SDS011;42987;52.916;6.542;2023-04-01T01:45:02;3.83;;;2.40;;
57107;SDS011;42987;52.916;6.542;2023-04-01T01:47:30;3.92;;;2.80;;
57107;SDS011;42987;52.916;6.542;2023-04-01T01:49:56;6.03;;;3.15;;
57107;SDS011;42987;52.916;6.542;2023-04-01T01:52:22;5.35;;;4.10;;
57107;SDS011;42987;52.916;6.542;2023-04-01T01:54:49;6.68;;;4.32;;
57107;SDS011;42987;52.916;6.542;2023-04-01T01:57:16;7.30;;;5.30;;
57107;SDS011;42987;52.916;6.542;2023-04-01T01:59:44;8.23;;;5.13;;
57107;SDS011;42987;52.916;6.542;2023-04-01T02:02:12;7.10;;;5.38;;
57107;SDS011;42987;52.916;6.542;2023-04-01T02:04:45;8.32;;;6.63;;
57107;SDS011;42987;52.916;6.542;2023-04-01T02:07:14;8.32;;;7.03;;
57107;SDS011;42987;52.916;6.542;2023-04-01T02:09:45;9.68;;;7.20;;
57107;SDS011;42987;52.916;6.542;2023-04-01T02:12:12;8.23;;;7.22;;
57107;SDS011;42987;52.916;6.542;2023-04-01T02:17:32;10.77;;;8.73;;
57107;SDS011;42987;52.916;6.542;2023-04-01T02:20:04;9.60;;;8.38;;
57107;SDS011;42987;52.916;6.542;2023-04-01T02:22:37;10.90;;;8.55;;
57107;SDS011;42987;52.916;6.542;2023-04-01T02:25:23;11.40;;;8.43;;
57107;SDS011;42987;52.916;6.542;2023-04-01T02:27:51;11.00;;;8.65;;
57107;SDS011;42987;52.916;6.542;2023-04-01T02:30:17;10.30;;;8.93;;
57107;SDS011;42987;52.916;6.542;2023-04-01T02:32:44;11.63;;;9.68;;
57107;SDS011;42987;52.916;6.542;2023-04-01T02:35:11;12.23;;;10.68;;
57107;SDS011;42987;52.916;6.542;2023-04-01T02:37:39;13.15;;;9.73;;
57107;SDS011;42987;52.916;6.542;2023-04-01T02:40:08;12.48;;;10.00;;
57107;SDS011;42987;52.916;6.542;2023-04-01T02:42:39;13.40;;;10.32;;
57107;SDS011;42987;52.916;6.542;2023-04-01T02:45:08;11.23;;;10.07;;
57107;SDS011;42987;52.916;6.542;2023-04-01T02:47:37;13.15;;;9.77;;
57107;SDS011;42987;52.916;6.542;2023-04-01T02:50:04;13.55;;;10.98;;
57107;SDS011;42987;52.916;6.542;2023-04-01T02:52:31;12.80;;;11.20;;
57107;SDS011;42987;52.916;6.542;2023-04-01T02:54:57;13.90;;;11.18;;
57107;SDS011;42987;52.916;6.542;2023-04-01T02:57:26;15.20;;;11.93;;
57107;SDS011;42987;52.916;6.542;2023-04-01T02:59:52;14.13;;;11.50;;
57107;SDS011;42987;52.916;6.542;2023-04-01T03:02:17;15.25;;;11.48;;
57107;SDS011;42987;52.916;6.542;2023-04-01T03:04:43;13.57;;;11.25;;
57107;SDS011;42987;52.916;6.542;2023-04-01T03:07:09;14.57;;;11.80;;
57107;SDS011;42987;52.916;6.542;2023-04-01T03:09:36;14.60;;;11.20;;
57107;SDS011;42987;52.916;6.542;2023-04-01T03:12:03;12.90;;;11.20;;
57107;SDS011;42987;52.916;6.542;2023-04-01T03:14:29;13.75;;;10.88;;
57107;SDS011;42987;52.916;6.542;2023-04-01T03:16:55;13.50;;;10.75;;
57107;SDS011;42987;52.916;6.542;2023-04-01T03:19:21;14.43;;;11.63;;
57107;SDS011;42987;52.916;6.542;2023-04-01T03:21:47;14.95;;;11.40;;
57107;SDS011;42987;52.916;6.542;2023-04-01T03:24:13;13.93;;;11.05;;
57107;SDS011;42987;52.916;6.542;2023-04-01T03:26:38;15.73;;;11.45;;
57107;SDS011;42987;52.916;6.542;2023-04-01T03:29:04;15.57;;;11.93;;
57107;SDS011;42987;52.916;6.542;2023-04-01T03:31:30;14.95;;;11.27;;
57107;SDS011;42987;52.916;6.542;2023-04-01T03:33:56;14.25;;;10.73;;
57107;SDS011;42987;52.916;6.542;2023-04-01T03:36:22;17.50;;;11.68;;
57107;SDS011;42987;52.916;6.542;2023-04-01T03:38:47;16.35;;;11.55;;
57107;SDS011;42987;52.916;6.542;2023-04-01T03:41:14;16.45;;;11.52;;
57107;SDS011;42987;52.916;6.542;2023-04-01T03:43:41;17.10;;;11.50;;
57107;SDS011;42987;52.916;6.542;2023-04-01T03:46:08;17.85;;;12.27;;
57107;SDS011;42987;52.916;6.542;2023-04-01T03:48:34;14.57;;;11.23;;
57107;SDS011;42987;52.916;6.542;2023-04-01T03:51:00;17.00;;;13.13;;
57107;SDS011;42987;52.916;6.542;2023-04-01T03:53:26;19.60;;;12.07;;
57107;SDS011;42987;52.916;6.542;2023-04-01T03:55:52;15.00;;;11.63;;
57107;SDS011;42987;52.916;6.542;2023-04-01T03:58:18;16.88;;;11.77;;
57107;SDS011;42987;52.916;6.542;2023-04-01T04:00:44;16.38;;;11.57;;
57107;SDS011;42987;52.916;6.542;2023-04-01T04:03:10;17.02;;;11.52;;
57107;SDS011;42987;52.916;6.542;2023-04-01T04:05:45;16.98;;;12.13;;
57107;SDS011;42987;52.916;6.542;2023-04-01T04:08:15;17.02;;;12.15;;
57107;SDS011;42987;52.916;6.542;2023-04-01T04:10:41;19.08;;;12.43;;
57107;SDS011;42987;52.916;6.542;2023-04-01T04:13:08;17.13;;;11.52;;
57107;SDS011;42987;52.916;6.542;2023-04-01T04:15:33;17.55;;;12.40;;
57107;SDS011;42987;52.916;6.542;2023-04-01T04:17:59;19.08;;;12.57;;
57107;SDS011;42987;52.916;6.542;2023-04-01T04:20:25;19.88;;;11.77;;
57107;SDS011;42987;52.916;6.542;2023-04-01T04:22:51;18.10;;;11.82;;
57107;SDS011;42987;52.916;6.542;2023-04-01T04:25:17;19.88;;;11.88;;
57107;SDS011;42987;52.916;6.542;2023-04-01T04:27:43;14.63;;;11.07;;
57107;SDS011;42987;52.916;6.542;2023-04-01T04:30:09;18.13;;;12.75;;
57107;SDS011;42987;52.916;6.542;2023-04-01T04:32:35;19.73;;;12.43;;
57107;SDS011;42987;52.916;6.542;2023-04-01T04:35:01;17.05;;;11.52;;
57107;SDS011;42987;52.916;6.542;2023-04-01T04:37:27;18.38;;;12.38;;
57107;SDS011;42987;52.916;6.542;2023-04-01T04:39:53;18.73;;;12.02;;
57107;SDS011;42987;52.916;6.542;2023-04-01T04:42:21;18.88;;;11.18;;
57107;SDS011;42987;52.916;6.542;2023-04-01T04:44:47;17.45;;;11.68;;
57107;SDS011;42987;52.916;6.542;2023-04-01T04:47:13;15.43;;;11.00;;
57107;SDS011;42987;52.916;6.542;2023-04-01T04:49:39;15.90;;;11.05;;
57107;SDS011;42987;52.916;6.542;2023-04-01T04:52:05;16.20;;;10.95;;
57107;SDS011;42987;52.916;6.542;2023-04-01T04:54:31;14.38;;;10.85;;
57107;SDS011;42987;52.916;6.542;2023-04-01T04:56:57;15.82;;;10.80;;
57107;SDS011;42987;52.916;6.542;2023-04-01T04:59:23;16.55;;;10.73;;
57107;SDS011;42987;52.916;6.542;2023-04-01T05:01:48;14.63;;;9.63;;
57107;SDS011;42987;52.916;6.542;2023-04-01T05:04:14;13.50;;;9.57;;
57107;SDS011;42987;52.916;6.542;2023-04-01T05:06:41;15.20;;;9.85;;
57107;SDS011;42987;52.916;6.542;2023-04-01T05:09:11;14.50;;;9.77;;
57107;SDS011;42987;52.916;6.542;2023-04-01T05:11:37;13.95;;;9.90;;
57107;SDS011;42987;52.916;6.542;2023-04-01T05:14:03;14.27;;;10.38;;
57107;SDS011;42987;52.916;6.542;2023-04-01T05:16:31;14.60;;;10.32;;
57107;SDS011;42987;52.916;6.542;2023-04-01T05:18:57;15.30;;;10.13;;
57107;SDS011;42987;52.916;6.542;2023-04-01T05:21:23;15.52;;;10.73;;
57107;SDS011;42987;52.916;6.542;2023-04-01T05:23:49;17.15;;;11.57;;
57107;SDS011;42987;52.916;6.542;2023-04-01T05:26:18;17.30;;;12.20;;
57107;SDS011;42987;52.916;6.542;2023-04-01T05:28:44;18.48;;;11.98;;
57107;SDS011;42987;52.916;6.542;2023-04-01T05:31:10;15.77;;;11.73;;
57107;SDS011;42987;52.916;6.542;2023-04-01T05:33:36;16.45;;;11.85;;
57107;SDS011;42987;52.916;6.542;2023-04-01T05:36:20;18.88;;;13.15;;
57107;SDS011;42987;52.916;6.542;2023-04-01T05:38:46;19.10;;;13.48;;
57107;SDS011;42987;52.916;6.542;2023-04-01T05:41:15;18.08;;;13.50;;
57107;SDS011;42987;52.916;6.542;2023-04-01T05:43:41;18.75;;;13.98;;
57107;SDS011;42987;52.916;6.542;2023-04-01T05:46:07;18.27;;;13.20;;
57107;SDS011;42987;52.916;6.542;2023-04-01T05:48:33;19.00;;;13.60;;
57107;SDS011;42987;52.916;6.542;2023-04-01T05:51:00;22.13;;;14.00;;
57107;SDS011;42987;52.916;6.542;2023-04-01T05:53:26;17.73;;;13.82;;
57107;SDS011;42987;52.916;6.542;2023-04-01T05:55:52;20.13;;;14.38;;
57107;SDS011;42987;52.916;6.542;2023-04-01T05:58:18;20.35;;;14.30;;
57107;SDS011;42987;52.916;6.542;2023-04-01T06:00:43;19.55;;;14.30;;
57107;SDS011;42987;52.916;6.542;2023-04-01T06:03:09;19.98;;;15.07;;
57107;SDS011;42987;52.916;6.542;2023-04-01T06:05:42;20.63;;;15.80;;
57107;SDS011;42987;52.916;6.542;2023-04-01T06:08:15;19.02;;;14.60;;
57107;SDS011;42987;52.916;6.542;2023-04-01T06:22:03;15.60;;;12.93;;
57107;SDS011;42987;52.916;6.542;2023-04-01T06:30:43;14.20;;;10.98;;
57107;SDS011;42987;52.916;6.542;2023-04-01T06:44:41;10.70;;;8.60;;
57107;SDS011;42987;52.916;6.542;2023-04-01T06:50:18;9.25;;;7.53;;
57107;SDS011;42987;52.916;6.542;2023-04-01T06:53:12;10.38;;;8.07;;
57107;SDS011;42987;52.916;6.542;2023-04-01T06:55:53;11.05;;;7.72;;
57107;SDS011;42987;52.916;6.542;2023-04-01T06:58:26;9.85;;;8.02;;
57107;SDS011;42987;52.916;6.542;2023-04-01T07:00:57;11.05;;;8.52;;
57107;SDS011;42987;52.916;6.542;2023-04-01T07:03:38;11.90;;;9.00;;
57107;SDS011;42987;52.916;6.542;2023-04-01T07:06:09;13.00;;;9.95;;
57107;SDS011;42987;52.916;6.542;2023-04-01T07:09:00;13.95;;;10.23;;
57107;SDS011;42987;52.916;6.542;2023-04-01T07:11:31;12.82;;;10.40;;
57107;SDS011;42987;52.916;6.542;2023-04-01T07:14:01;15.25;;;11.30;;
57107;SDS011;42987;52.916;6.542;2023-04-01T07:16:51;15.73;;;11.48;;
57107;SDS011;42987;52.916;6.542;2023-04-01T07:19:34;17.25;;;12.52;;
57107;SDS011;42987;52.916;6.542;2023-04-01T07:24:55;22.15;;;14.52;;
57107;SDS011;42987;52.916;6.542;2023-04-01T07:27:26;19.63;;;13.68;;
57107;SDS011;42987;52.916;6.542;2023-04-01T07:29:52;17.75;;;13.70;;
57107;SDS011;42987;52.916;6.542;2023-04-01T07:32:42;18.60;;;14.52;;
57107;SDS011;42987;52.916;6.542;2023-04-01T07:38:07;19.50;;;15.30;;
57107;SDS011;42987;52.916;6.542;2023-04-01T07:40:39;16.98;;;14.65;;
57107;SDS011;42987;52.916;6.542;2023-04-01T07:46:14;17.48;;;14.68;;
57107;SDS011;42987;52.916;6.542;2023-04-01T07:51:16;18.05;;;15.65;;
57107;SDS011;42987;52.916;6.542;2023-04-01T07:59:44;17.02;;;15.23;;
57107;SDS011;42987;52.916;6.542;2023-04-01T08:07:33;17.58;;;15.68;;
57107;SDS011;42987;52.916;6.542;2023-04-01T08:18:20;17.05;;;15.25;;
57107;SDS011;42987;52.916;6.542;2023-04-01T08:21:13;15.98;;;14.27;;
57107;SDS011;42987;52.916;6.542;2023-04-01T08:23:54;16.05;;;14.35;;
57107;SDS011;42987;52.916;6.542;2023-04-01T08:26:34;17.38;;;15.15;;
57107;SDS011;42987;52.916;6.542;2023-04-01T08:31:51;15.65;;;13.95;;
57107;SDS011;42987;52.916;6.542;2023-04-01T08:34:32;15.73;;;14.13;;
57107;SDS011;42987;52.916;6.542;2023-04-01T08:37:07;15.50;;;13.90;;
57107;SDS011;42987;52.916;6.542;2023-04-01T08:39:46;18.38;;;15.88;;
57107;SDS011;42987;52.916;6.542;2023-04-01T08:50:41;11.57;;;10.30;;
57107;SDS011;42987;52.916;6.542;2023-04-01T08:56:18;10.98;;;9.88;;
57107;SDS011;42987;52.916;6.542;2023-04-01T09:13:09;13.60;;;11.30;;
57107;SDS011;42987;52.916;6.542;2023-04-01T09:16:01;14.60;;;11.95;;
57107;SDS011;42987;52.916;6.542;2023-04-01T09:22:21;13.25;;;11.32;;
57107;SDS011;42987;52.916;6.542;2023-04-01T09:27:43;13.23;;;11.82;;
57107;SDS011;42987;52.916;6.542;2023-04-01T09:30:33;13.40;;;11.75;;
57107;SDS011;42987;52.916;6.542;2023-04-01T09:33:36;14.70;;;12.52;;
57107;SDS011;42987;52.916;6.542;2023-04-01T09:39:26;15.90;;;14.10;;
57107;SDS011;42987;52.916;6.542;2023-04-01T09:44:48;17.35;;;15.63;;
57107;SDS011;42987;52.916;6.542;2023-04-01T09:55:16;17.58;;;15.77;;
57107;SDS011;42987;52.916;6.542;2023-04-01T10:18:17;17.17;;;15.40;;
57107;SDS011;42987;52.916;6.542;2023-04-01T10:35:23;12.63;;;11.43;;
57107;SDS011;42987;52.916;6.542;2023-04-01T10:46:33;8.07;;;7.28;;
57107;SDS011;42987;52.916;6.542;2023-04-01T10:55:53;9.10;;;8.20;;
57107;SDS011;42987;52.916;6.542;2023-04-01T11:13:04;9.93;;;9.00;;
57107;SDS011;42987;52.916;6.542;2023-04-01T11:27:13;10.38;;;9.38;;
57107;SDS011;42987;52.916;6.542;2023-04-01T11:29:48;10.43;;;9.38;;
57107;SDS011;42987;52.916;6.542;2023-04-01T11:32:46;9.40;;;8.50;;
57107;SDS011;42987;52.916;6.542;2023-04-01T11:46:19;6.63;;;6.03;;
57107;SDS011;42987;52.916;6.542;2023-04-01T11:49:13;6.75;;;5.95;;
57107;SDS011;42987;52.916;6.542;2023-04-01T11:58:05;7.82;;;6.38;;
57107;SDS011;42987;52.916;6.542;2023-04-01T12:03:01;6.78;;;6.13;;
57107;SDS011;42987;52.916;6.542;2023-04-01T12:11:38;7.25;;;6.55;;
57107;SDS011;42987;52.916;6.542;2023-04-01T12:16:59;6.35;;;5.70;;
57107;SDS011;42987;52.916;6.542;2023-04-01T12:23:15;6.68;;;6.07;;
57107;SDS011;42987;52.916;6.542;2023-04-01T12:33:48;7.75;;;6.93;;
57107;SDS011;42987;52.916;6.542;2023-04-01T12:36:26;8.23;;;7.43;;
57107;SDS011;42987;52.916;6.542;2023-04-01T12:39:07;8.48;;;7.68;;
57107;SDS011;42987;52.916;6.542;2023-04-01T12:45:01;8.40;;;7.60;;
57107;SDS011;42987;52.916;6.542;2023-04-01T12:47:57;8.40;;;7.63;;
57107;SDS011;42987;52.916;6.542;2023-04-01T13:00:03;6.47;;;5.88;;
57107;SDS011;42987;52.916;6.542;2023-04-01T13:07:57;6.40;;;5.80;;
57107;SDS011;42987;52.916;6.542;2023-04-01T13:13:52;7.28;;;6.60;;
57107;SDS011;42987;52.916;6.542;2023-04-01T13:16:22;7.50;;;6.80;;
57107;SDS011;42987;52.916;6.542;2023-04-01T13:24:45;7.70;;;7.00;;
57107;SDS011;42987;52.916;6.542;2023-04-01T13:27:40;7.22;;;6.63;;
57107;SDS011;42987;52.916;6.542;2023-04-01T13:30:18;7.10;;;6.50;;
57107;SDS011;42987;52.916;6.542;2023-04-01T13:32:58;7.35;;;6.72;;
57107;SDS011;42987;52.916;6.542;2023-04-01T13:36:06;7.15;;;6.45;;
57107;SDS011;42987;52.916;6.542;2023-04-01T13:38:38;6.57;;;5.97;;
57107;SDS011;42987;52.916;6.542;2023-04-01T13:44:02;6.22;;;5.63;;
57107;SDS011;42987;52.916;6.542;2023-04-01T13:52:25;5.82;;;5.32;;
57107;SDS011;42987;52.916;6.542;2023-04-01T13:57:45;5.78;;;5.10;;
57107;SDS011;42987;52.916;6.542;2023-04-01T14:00:28;5.07;;;4.60;;
57107;SDS011;42987;52.916;6.542;2023-04-01T14:03:27;5.53;;;5.03;;
57107;SDS011;42987;52.916;6.542;2023-04-01T14:06:02;4.90;;;4.40;;
57107;SDS011;42987;52.916;6.542;2023-04-01T14:08:42;4.93;;;4.40;;
57107;SDS011;42987;52.916;6.542;2023-04-01T14:16:59;6.78;;;4.85;;
57107;SDS011;42987;52.916;6.542;2023-04-01T14:22:48;5.10;;;4.28;;
57107;SDS011;42987;52.916;6.542;2023-04-01T14:39:38;4.28;;;3.88;;
57107;SDS011;42987;52.916;6.542;2023-04-01T14:47:53;3.97;;;3.58;;
57107;SDS011;42987;52.916;6.542;2023-04-01T15:09:17;4.22;;;3.83;;
57107;SDS011;42987;52.916;6.542;2023-04-01T15:12:22;4.47;;;4.07;;
57107;SDS011;42987;52.916;6.542;2023-04-01T15:15:01;4.20;;;3.80;;
57107;SDS011;42987;52.916;6.542;2023-04-01T15:17:48;5.43;;;4.28;;
57107;SDS011;42987;52.916;6.542;2023-04-01T15:23:19;4.10;;;3.80;;
57107;SDS011;42987;52.916;6.542;2023-04-01T15:37:11;4.30;;;3.90;;
57107;SDS011;42987;52.916;6.542;2023-04-01T15:42:59;3.88;;;3.58;;
57107;SDS011;42987;52.916;6.542;2023-04-01T15:54:02;3.20;;;2.88;;
57107;SDS011;42987;52.916;6.542;2023-04-01T15:56:41;3.65;;;3.35;;
57107;SDS011;42987;52.916;6.542;2023-04-01T16:05:00;4.65;;;4.18;;
57107;SDS011;42987;52.916;6.542;2023-04-01T16:13:33;4.70;;;4.30;;
57107;SDS011;42987;52.916;6.542;2023-04-01T16:18:45;5.97;;;5.38;;
57107;SDS011;42987;52.916;6.542;2023-04-01T16:21:36;6.57;;;5.97;;
57107;SDS011;42987;52.916;6.542;2023-04-01T16:24:05;8.07;;;6.88;;
57107;SDS011;42987;52.916;6.542;2023-04-01T16:29:24;8.55;;;7.75;;
57107;SDS011;42987;52.916;6.542;2023-04-01T16:32:14;8.82;;;8.02;;
57107;SDS011;42987;52.916;6.542;2023-04-01T16:34:58;8.70;;;7.53;;
57107;SDS011;42987;52.916;6.542;2023-04-01T16:37:34;10.07;;;7.65;;
57107;SDS011;42987;52.916;6.542;2023-04-01T16:45:30;8.50;;;7.68;;
57107;SDS011;42987;52.916;6.542;2023-04-01T16:48:01;8.73;;;7.88;;
57107;SDS011;42987;52.916;6.542;2023-04-01T16:55:49;9.05;;;8.00;;
57107;SDS011;42987;52.916;6.542;2023-04-01T16:58:23;8.73;;;7.90;;
57107;SDS011;42987;52.916;6.542;2023-04-01T17:00:58;8.48;;;7.68;;
57107;SDS011;42987;52.916;6.542;2023-04-01T17:03:49;8.02;;;7.25;;
57107;SDS011;42987;52.916;6.542;2023-04-01T17:06:44;8.98;;;7.50;;
57107;SDS011;42987;52.916;6.542;2023-04-01T17:21:04;10.45;;;8.18;;
57107;SDS011;42987;52.916;6.542;2023-04-01T17:23:43;8.50;;;7.70;;
57107;SDS011;42987;52.916;6.542;2023-04-01T17:40:21;11.30;;;9.38;;
57107;SDS011;42987;52.916;6.542;2023-04-01T17:43:04;10.07;;;9.00;;
57107;SDS011;42987;52.916;6.542;2023-04-01T17:57:07;10.70;;;9.60;;
57107;SDS011;42987;52.916;6.542;2023-04-01T18:00:12;10.13;;;8.68;;
57107;SDS011;42987;52.916;6.542;2023-04-01T18:06:19;12.32;;;8.98;;
57107;SDS011;42987;52.916;6.542;2023-04-01T18:08:59;10.27;;;9.27;;
57107;SDS011;42987;52.916;6.542;2023-04-01T18:11:54;11.13;;;9.85;;
57107;SDS011;42987;52.916;6.542;2023-04-01T18:14:36;10.90;;;9.90;;
57107;SDS011;42987;52.916;6.542;2023-04-01T18:17:17;11.75;;;10.38;;
57107;SDS011;42987;52.916;6.542;2023-04-01T18:20:11;11.13;;;9.98;;
57107;SDS011;42987;52.916;6.542;2023-04-01T18:22:58;12.07;;;10.80;;
57107;SDS011;42987;52.916;6.542;2023-04-01T18:39:35;11.43;;;10.43;;
57107;SDS011;42987;52.916;6.542;2023-04-01T18:41:52;13.43;;;11.48;;
57107;SDS011;42987;52.916;6.542;2023-04-01T18:49:52;12.40;;;11.20;;
57107;SDS011;42987;52.916;6.542;2023-04-01T18:52:24;13.48;;;11.63;;
57107;SDS011;42987;52.916;6.542;2023-04-01T19:00:32;14.10;;;12.55;;
57107;SDS011;42987;52.916;6.542;2023-04-01T19:03:11;13.60;;;12.30;;
57107;SDS011;42987;52.916;6.542;2023-04-01T19:05:44;13.68;;;12.38;;
57107;SDS011;42987;52.916;6.542;2023-04-01T19:08:24;13.38;;;11.85;;
57107;SDS011;42987;52.916;6.542;2023-04-01T19:11:05;13.63;;;12.23;;
57107;SDS011;42987;52.916;6.542;2023-04-01T19:16:24;12.52;;;10.80;;
57107;SDS011;42987;52.916;6.542;2023-04-01T19:19:37;12.88;;;11.32;;
57107;SDS011;42987;52.916;6.542;2023-04-01T19:27:41;11.75;;;10.52;;
57107;SDS011;42987;52.916;6.542;2023-04-01T19:30:31;12.50;;;10.65;;
57107;SDS011;42987;52.916;6.542;2023-04-01T19:33:29;12.50;;;10.90;;
57107;SDS011;42987;52.916;6.542;2023-04-01T19:36:16;14.68;;;11.10;;
57107;SDS011;42987;52.916;6.542;2023-04-01T19:39:12;11.40;;;10.18;;
57107;SDS011;42987;52.916;6.542;2023-04-01T19:42:09;14.27;;;11.57;;
57107;SDS011;42987;52.916;6.542;2023-04-01T19:47:52;13.30;;;11.63;;
57107;SDS011;42987;52.916;6.542;2023-04-01T19:50:59;14.23;;;11.68;;
57107;SDS011;42987;52.916;6.542;2023-04-01T19:58:45;13.63;;;10.43;;
57107;SDS011;42987;52.916;6.542;2023-04-01T20:01:22;13.45;;;11.55;;
57107;SDS011;42987;52.916;6.542;2023-04-01T20:03:58;13.85;;;11.10;;
57107;SDS011;42987;52.916;6.542;2023-04-01T20:06:35;14.68;;;12.70;;
57107;SDS011;42987;52.916;6.542;2023-04-01T20:09:29;15.30;;;11.65;;
57107;SDS011;42987;52.916;6.542;2023-04-01T20:12:06;14.32;;;12.13;;
57107;SDS011;42987;52.916;6.542;2023-04-01T20:17:21;15.77;;;13.02;;
57107;SDS011;42987;52.916;6.542;2023-04-01T20:28:04;15.38;;;13.07;;
57107;SDS011;42987;52.916;6.542;2023-04-01T20:36:28;16.38;;;14.43;;
57107;SDS011;42987;52.916;6.542;2023-04-01T20:44:33;18.50;;;14.63;;
57107;SDS011;42987;52.916;6.542;2023-04-01T20:58:38;14.95;;;13.13;;
57107;SDS011;42987;52.916;6.542;2023-04-01T21:12:56;14.95;;;11.93;;
57107;SDS011;42987;52.916;6.542;2023-04-01T21:18:35;15.43;;;12.73;;
57107;SDS011;42987;52.916;6.542;2023-04-01T21:21:34;14.02;;;11.27;;
57107;SDS011;42987;52.916;6.542;2023-04-01T21:25:30;14.60;;;12.15;;
57107;SDS011;42987;52.916;6.542;2023-04-01T21:38:07;13.25;;;11.10;;
57107;SDS011;42987;52.916;6.542;2023-04-01T21:43:54;14.35;;;11.02;;
57107;SDS011;42987;52.916;6.542;2023-04-01T21:49:45;14.35;;;10.95;;
57107;SDS011;42987;52.916;6.542;2023-04-01T22:09:38;15.02;;;11.13;;
57107;SDS011;42987;52.916;6.542;2023-04-01T22:12:12;13.15;;;10.18;;
57107;SDS011;42987;52.916;6.542;2023-04-01T22:15:11;12.65;;;10.82;;
57107;SDS011;42987;52.916;6.542;2023-04-01T22:17:50;13.75;;;11.68;;
57107;SDS011;42987;52.916;6.542;2023-04-01T22:25:56;10.98;;;9.88;;
57107;SDS011;42987;52.916;6.542;2023-04-01T22:28:29;16.70;;;11.35;;
57107;SDS011;42987;52.916;6.542;2023-04-01T22:31:08;13.75;;;11.15;;
57107;SDS011;42987;52.916;6.542;2023-04-01T22:33:44;11.70;;;10.20;;
57107;SDS011;42987;52.916;6.542;2023-04-01T22:36:22;13.30;;;10.68;;
57107;SDS011;42987;52.916;6.542;2023-04-01T22:47:12;13.30;;;10.15;;
57107;SDS011;42987;52.916;6.542;2023-04-01T22:49:48;11.70;;;10.48;;
57107;SDS011;42987;52.916;6.542;2023-04-01T22:52:35;11.50;;;10.05;;
57107;SDS011;42987;52.916;6.542;2023-04-01T22:55:17;13.98;;;10.13;;
57107;SDS011;42987;52.916;6.542;2023-04-01T22:58:07;12.35;;;10.40;;
57107;SDS011;42987;52.916;6.542;2023-04-01T23:00:42;11.07;;;9.55;;
57107;SDS011;42987;52.916;6.542;2023-04-01T23:03:19;10.90;;;9.43;;
57107;SDS011;42987;52.916;6.542;2023-04-01T23:05:53;10.02;;;8.82;;
57107;SDS011;42987;52.916;6.542;2023-04-01T23:10:59;11.90;;;9.07;;
57107;SDS011;42987;52.916;6.542;2023-04-01T23:13:34;13.90;;;10.13;;
57107;SDS011;42987;52.916;6.542;2023-04-01T23:16:04;10.43;;;8.82;;
57107;SDS011;42987;52.916;6.542;2023-04-01T23:18:36;12.32;;;9.23;;
57107;SDS011;42987;52.916;6.542;2023-04-01T23:21:51;13.35;;;10.13;;
57107;SDS011;42987;52.916;6.542;2023-04-01T23:27:37;11.38;;;9.25;;
57107;SDS011;42987;52.916;6.542;2023-04-01T23:35:52;11.27;;;9.23;;
57107;SDS011;42987;52.916;6.542;2023-04-01T23:38:36;12.05;;;9.82;;
57107;SDS011;42987;52.916;6.542;2023-04-01T23:41:04;10.15;;;9.00;;
57107;SDS011;42987;52.916;6.542;2023-04-01T23:43:32;9.98;;;8.52;;
57107;SDS011;42987;52.916;6.542;2023-04-01T23:46:06;12.80;;;9.23;;
57107;SDS011;42987;52.916;6.542;2023-04-01T23:48:34;10.38;;;8.98;;
57107;SDS011;42987;52.916;6.542;2023-04-01T23:51:17;11.05;;;9.48;;
57107;SDS011;42987;52.916;6.542;2023-04-01T23:54:01;10.02;;;8.82;;
57107;SDS011;42987;52.916;6.542;2023-04-01T23:56:39;10.80;;;9.23;;
57107;SDS011;42987;52.916;6.542;2023-04-01T23:59:14;10.23;;;8.35;;
